Time;durP1;ratioP1;P1;durP2;ratioP2;P2;SDS_P1;SDS_P2;PMS_P1;PMS_P2;Temp;Humidity;BMP_temperature;BMP_pressure;BME280_temperature;BME280_humidity;BME280_pressure;Samples;Min_cycle;Max_cycle;Signal;HPM_P1;HPM_P2
2023/04/04 00:02:40;;;;;;;49.20;16.80;;;;;;;1.96;80.37;101999.06;5100108;56;1140991;-75
2023/04/04 00:07:49;;;;;;;66.67;24.47;;;;;;;1.93;80.74;101989.13;5121889;56;1138916;-72
2023/04/04 00:12:55;;;;;;;31.33;12.23;;;;;;;1.95;81.03;101988.66;5059152;56;1138664;-72
2023/04/04 00:18:01;;;;;;;21.87;8.48;;;;;;;1.87;81.06;101987.47;5022689;56;1138817;-76
2023/04/04 00:23:09;;;;;;;11.40;5.27;;;;;;;1.77;80.79;101982.02;5091581;56;1136594;-72
2023/04/04 00:28:14;;;;;;;18.27;5.67;;;;;;;1.62;81.07;101970.11;5086129;56;1136781;-75
2023/04/04 00:33:20;;;;;;;13.75;4.72;;;;;;;1.59;81.41;101970.59;5100647;56;1136790;-73
2023/04/04 00:38:28;;;;;;;19.67;4.80;;;;;;;1.49;81.79;101966.00;5121365;56;1136887;-74
2023/04/04 00:43:33;;;;;;;8.57;2.70;;;;;;;1.44;82.73;101966.51;5113095;55;1136651;-78
2023/04/04 00:48:40;;;;;;;6.40;2.92;;;;;;;1.37;83.00;101962.30;5103903;55;1134785;-76
2023/04/04 00:53:47;;;;;;;5.78;3.30;;;;;;;1.37;83.33;101964.91;5024554;56;1134850;-78
2023/04/04 00:58:53;;;;;;;11.87;5.33;;;;;;;1.37;83.26;101954.04;5037738;57;1134624;-78
2023/04/04 01:03:59;;;;;;;27.82;10.20;;;;;;;1.41;83.85;101954.82;4990062;56;1136591;-75
2023/04/04 01:09:05;;;;;;;23.03;9.53;;;;;;;1.43;84.02;101953.05;5067328;56;1138881;-77
2023/04/04 01:14:11;;;;;;;28.10;9.13;;;;;;;1.42;84.42;101953.94;5080562;56;1136590;-78
2023/04/04 01:19:28;;;;;;;12.63;4.47;;;;;;;1.40;84.38;101953.09;5101536;55;1136593;-77
2023/04/04 01:24:36;;;;;;;9.10;3.43;;;;;;;1.35;84.36;101953.20;4948201;57;1136770;-74
2023/04/04 01:29:43;;;;;;;7.45;3.47;;;;;;;1.30;84.21;101955.45;5101011;56;1134901;-78
2023/04/04 01:35:15;;;;;;;7.33;2.23;;;;;;;1.28;84.47;101952.00;5120407;56;1134805;-77
2023/04/04 01:40:27;;;;;;;8.77;3.50;;;;;;;1.24;84.18;101942.51;5112581;55;1134821;-77
2023/04/04 01:45:33;;;;;;;4.65;1.57;;;;;;;1.21;84.34;101943.89;5138152;55;1134734;-74
2023/04/04 01:50:40;;;;;;;3.67;2.00;;;;;;;1.28;84.33;101930.71;5058639;56;1134683;-77
2023/04/04 01:55:46;;;;;;;3.30;2.13;;;;;;;1.34;84.54;101928.02;5037827;57;1134616;-77
2023/04/04 02:00:53;;;;;;;5.37;2.17;;;;;;;1.36;83.69;101921.03;4937025;57;1134506;-77
2023/04/04 02:06:00;;;;;;;4.80;1.90;;;;;;;1.40;83.64;101915.30;5017873;57;1134626;-75
2023/04/04 02:11:06;;;;;;;3.27;1.70;;;;;;;1.39;83.39;101904.02;5035029;57;1134697;-76
2023/04/04 02:16:12;;;;;;;6.47;2.97;;;;;;;1.39;83.20;101897.50;5028286;56;1134495;-78
2023/04/04 02:21:18;;;;;;;4.73;2.57;;;;;;;1.44;83.23;101900.48;5059204;55;1134645;-74
2023/04/04 02:26:26;;;;;;;11.70;2.35;;;;;;;1.50;83.35;101896.02;5025345;56;1134484;-77
2023/04/04 02:31:31;;;;;;;6.10;2.94;;;;;;;1.49;83.05;101892.14;5015914;55;1136694;-76
2023/04/04 02:36:37;;;;;;;7.00;2.62;;;;;;;1.44;83.09;101893.52;5016394;55;1134625;-76
2023/04/04 02:41:43;;;;;;;5.77;2.10;;;;;;;1.43;83.39;101889.19;5016349;55;1134715;-77
2023/04/04 02:46:49;;;;;;;4.20;2.20;;;;;;;1.49;83.55;101883.88;5073943;56;1134663;-75
2023/04/04 02:51:55;;;;;;;17.80;7.60;;;;;;;1.52;83.26;101884.27;4905318;57;1134719;-75
2023/04/04 02:57:01;;;;;;;15.20;3.20;;;;;;;1.50;82.36;101882.98;4955952;57;1136732;-77
2023/04/04 03:02:07;;;;;;;4.57;2.23;;;;;;;1.36;82.09;101881.94;4898458;59;1136699;-75
2023/04/04 03:07:13;;;;;;;8.77;1.87;;;;;;;1.25;82.10;101876.47;4879372;59;1134581;-77
2023/04/04 03:12:23;;;;;;;2.77;1.67;;;;;;;1.15;82.42;101862.76;4878646;59;1134723;-74
2023/04/04 03:17:29;;;;;;;10.10;3.77;;;;;;;1.01;82.53;101858.23;4912459;57;1134611;-74
2023/04/04 03:22:34;;;;;;;18.20;5.85;;;;;;;0.83;83.77;101867.64;4879630;58;1136712;-75
2023/04/04 03:27:40;;;;;;;11.52;5.34;;;;;;;0.79;84.52;101876.38;4807079;59;1136676;-73
2023/04/04 03:32:46;;;;;;;6.03;1.73;;;;;;;0.78;84.97;101866.84;4903611;56;1136660;-73
2023/04/04 03:37:53;;;;;;;4.20;1.93;;;;;;;0.65;86.30;101871.38;4885009;56;1134745;-71
2023/04/04 03:43:01;;;;;;;8.13;3.43;;;;;;;0.51;87.91;101862.92;4885141;56;1134668;-65
2023/04/04 03:48:06;;;;;;;4.30;2.17;;;;;;;0.39;88.37;101860.50;4904086;57;1134741;-67
2023/04/04 03:53:13;;;;;;;6.10;2.53;;;;;;;0.29;89.69;101855.44;4896171;57;1134935;-70
2023/04/04 03:58:20;;;;;;;14.27;3.70;;;;;;;0.18;90.93;101856.00;4880249;58;1134670;-72
2023/04/04 04:03:25;;;;;;;12.17;3.07;;;;;;;0.17;91.40;101855.58;4899033;58;1136540;-68
2023/04/04 04:08:31;;;;;;;13.33;3.30;;;;;;;0.23;92.41;101853.34;4879873;58;1144699;-72
2023/04/04 04:13:39;;;;;;;8.68;2.92;;;;;;;0.22;93.65;101855.09;4914485;58;1136592;-69
2023/04/04 04:18:45;;;;;;;8.68;2.62;;;;;;;0.19;94.49;101847.32;4946485;57;1134787;-67
2023/04/04 04:23:52;;;;;;;11.80;3.30;;;;;;;0.20;94.86;101851.64;4967703;57;1134757;-71
2023/04/04 04:28:58;;;;;;;19.90;5.23;;;;;;;0.21;97.71;101848.16;4947665;57;1136672;-72
2023/04/04 04:34:09;;;;;;;22.67;5.47;;;;;;;0.19;97.44;101847.76;4947685;57;1136610;-70
2023/04/04 04:39:15;;;;;;;21.47;4.00;;;;;;;0.16;100.00;101848.66;4967096;57;1136515;-72
2023/04/04 04:44:23;;;;;;;12.33;3.23;;;;;;;0.15;99.55;101846.10;4948736;57;1138854;-66
2023/04/04 04:49:29;;;;;;;8.87;3.03;;;;;;;0.17;100.00;101846.47;4947274;57;1136968;-67
2023/04/04 04:54:35;;;;;;;7.75;3.33;;;;;;;0.22;100.00;101850.33;4954102;57;1137073;-71
2023/04/04 04:59:41;;;;;;;9.17;3.37;;;;;;;0.30;100.00;101845.45;4954742;57;1136683;-71
2023/04/04 05:04:47;;;;;;;8.03;3.60;;;;;;;0.36;100.00;101847.09;4951672;57;1136708;-69
2023/04/04 05:09:54;;;;;;;9.05;3.17;;;;;;;0.47;100.00;101848.22;4872746;58;1136951;-67
2023/04/04 05:15:00;;;;;;;12.73;3.67;;;;;;;0.61;100.00;101856.24;5092101;56;1136804;-71
2023/04/04 05:20:07;;;;;;;9.93;3.20;;;;;;;0.69;100.00;101858.30;5101294;56;1138850;-71
2023/04/04 05:25:14;;;;;;;7.25;3.15;;;;;;;0.77;100.00;101854.70;5101503;56;1136518;-70
2023/04/04 05:30:22;;;;;;;10.17;2.43;;;;;;;0.74;100.00;101862.14;5121399;56;1136584;-68
2023/04/04 05:35:29;;;;;;;9.57;2.97;;;;;;;0.76;100.00;101866.89;5085183;56;1138702;-71
2023/04/04 05:40:35;;;;;;;9.05;2.92;;;;;;;0.80;100.00;101851.61;5065762;56;1136827;-68
2023/04/04 05:45:43;;;;;;;7.20;3.20;;;;;;;0.78;100.00;101849.91;5142558;55;1136850;-68
2023/04/04 05:50:49;;;;;;;8.80;2.90;;;;;;;0.93;100.00;101854.88;5148439;56;1136589;-68
2023/04/04 05:55:57;;;;;;;8.57;2.83;;;;;;;1.17;100.00;101854.48;5091218;55;1136895;-69
2023/04/04 06:01:09;;;;;;;8.43;3.53;;;;;;;1.45;100.00;101856.58;5058389;55;1136599;-67
2023/04/04 06:06:16;;;;;;;10.23;3.40;;;;;;;1.62;100.00;101863.64;5036445;56;1136762;-69
2023/04/04 06:11:22;;;;;;;12.97;2.80;;;;;;;1.76;100.00;101865.53;5017367;56;1138810;-70
2023/04/04 06:16:30;;;;;;;9.03;3.72;;;;;;;2.13;100.00;101867.41;5069371;56;1138795;-70
2023/04/04 06:21:36;;;;;;;11.55;3.55;;;;;;;2.13;100.00;101867.41;5082558;56;1136859;-68
2023/04/04 06:26:43;;;;;;;7.10;2.83;;;;;;;2.31;100.00;101863.92;5107289;56;1138813;-68
2023/04/04 06:31:50;;;;;;;16.10;3.40;;;;;;;2.53;100.00;101864.77;5101491;56;1136538;-65
2023/04/04 06:37:00;;;;;;;7.60;2.60;;;;;;;2.54;99.33;101851.67;4987776;57;1138746;-68
2023/04/04 06:42:08;;;;;;;9.63;3.62;;;;;;;2.54;97.17;101847.75;5019367;57;1134604;-68
2023/04/04 06:47:14;;;;;;;8.03;3.37;;;;;;;2.53;97.58;101855.62;5129891;55;1134557;-72
2023/04/04 06:52:20;;;;;;;19.03;4.93;;;;;;;2.58;97.52;101849.86;5101933;56;1134629;-71
2023/04/04 06:57:25;;;;;;;9.33;2.87;;;;;;;2.65;96.57;101847.49;5208733;55;1136504;-70
2023/04/04 07:02:31;;;;;;;12.28;2.65;;;;;;;2.68;95.04;101846.13;5104712;55;1134484;-72
2023/04/04 07:07:37;;;;;;;10.68;2.42;;;;;;;2.67;93.58;101840.04;5033933;56;1136630;-68
2023/04/04 07:12:43;;;;;;;14.40;5.55;;;;;;;2.68;91.81;101843.06;5064924;56;1136619;-69
2023/04/04 07:17:48;;;;;;;7.53;3.40;;;;;;;2.61;90.23;101854.98;5099970;56;1136727;-71
2023/04/04 07:22:54;;;;;;;6.00;2.83;;;;;;;2.59;90.51;101858.11;5046194;56;1134436;-70
2023/04/04 07:28:00;;;;;;;6.90;2.40;;;;;;;2.52;89.02;101852.15;5046215;56;1135019;-73
2023/04/04 07:33:05;;;;;;;6.43;3.20;;;;;;;2.62;89.85;101847.11;5089564;56;1134586;-75
2023/04/04 07:38:11;;;;;;;9.87;2.90;;;;;;;2.76;87.81;101839.80;5089652;56;1134542;-72
2023/04/04 07:43:16;;;;;;;5.57;2.30;;;;;;;2.83;87.29;101841.83;5099909;56;1134499;-72
2023/04/04 07:48:22;;;;;;;9.50;2.80;;;;;;;2.99;86.13;101835.33;5062068;56;1134772;-73
2023/04/04 07:53:28;;;;;;;2.47;1.50;;;;;;;3.25;87.15;101826.81;5015752;57;1134568;-72
2023/04/04 07:58:35;;;;;;;2.70;1.33;;;;;;;3.73;83.04;101821.99;5061319;56;1134754;-73
2023/04/04 08:03:41;;;;;;;12.20;3.27;;;;;;;3.62;78.56;101824.52;5088353;56;1134893;-74
2023/04/04 08:08:46;;;;;;;4.15;2.25;;;;;;;3.38;80.43;101824.27;5116833;56;1136604;-76
2023/04/04 08:13:52;;;;;;;10.50;2.53;;;;;;;3.26;80.90;101832.45;5058583;56;1134552;-73
2023/04/04 08:18:59;;;;;;;9.13;2.23;;;;;;;3.19;80.64;101824.38;5158306;54;1136611;-74
2023/04/04 08:24:05;;;;;;;5.55;1.62;;;;;;;3.12;79.89;101824.11;5160866;55;1134926;-75
2023/04/04 08:29:10;;;;;;;5.13;2.23;;;;;;;3.08;81.19;101827.69;5040030;55;1134619;-74
2023/04/04 08:34:16;;;;;;;8.40;3.37;;;;;;;2.91;79.75;101824.20;5032527;56;1134708;-73
2023/04/04 08:39:22;;;;;;;4.73;2.00;;;;;;;2.92;81.16;101820.69;5058197;55;1134547;-74
2023/04/04 08:44:29;;;;;;;5.83;2.27;;;;;;;2.92;79.78;101810.23;5039785;56;1134455;-73
2023/04/04 08:49:38;;;;;;;4.57;2.10;;;;;;;3.05;80.96;101810.36;5154952;55;1134499;-72
2023/04/04 08:54:45;;;;;;;4.77;2.27;;;;;;;3.09;78.07;101806.75;4984187;57;1134720;-72
2023/04/04 08:59:51;;;;;;;8.17;1.90;;;;;;;3.02;79.83;101810.88;5031333;57;1134796;-74
2023/04/04 09:04:58;;;;;;;8.60;2.23;;;;;;;2.97;80.04;101809.69;5011512;57;1134587;-74
2023/04/04 09:10:05;;;;;;;12.83;3.33;;;;;;;2.95;80.21;101804.94;5014370;56;1134773;-71
2023/04/04 09:15:12;;;;;;;5.67;2.70;;;;;;;2.90;80.67;101799.00;5131985;56;1136707;-74
2023/04/04 09:20:41;;;;;;;14.23;2.30;;;;;;;2.83;81.63;101803.50;5041820;55;1134523;-75
2023/04/04 09:25:50;;;;;;;9.50;2.03;;;;;;;2.87;81.71;101793.84;5073404;55;1136555;-73
2023/04/04 09:30:56;;;;;;;13.03;3.13;;;;;;;3.07;84.75;101792.86;5082559;55;1134803;-74
2023/04/04 09:36:12;;;;;;;8.13;2.60;;;;;;;3.26;80.29;101789.76;5121810;54;1136642;-72
2023/04/04 09:41:20;;;;;;;6.30;2.93;;;;;;;3.29;78.66;101785.76;5101982;56;1134767;-74
2023/04/04 09:46:26;;;;;;;3.27;1.67;;;;;;;3.26;80.30;101787.14;5137368;55;1134746;-74
2023/04/04 09:51:40;;;;;;;4.63;2.23;;;;;;;3.25;79.84;101790.66;5088528;56;1134638;-75
2023/04/04 09:56:45;;;;;;;12.50;2.17;;;;;;;3.28;80.90;101790.58;4924786;58;1134459;-74
2023/04/04 10:01:52;;;;;;;11.30;2.92;;;;;;;3.38;79.61;101789.41;5014280;56;1136626;-72
2023/04/04 10:07:00;;;;;;;10.47;3.73;;;;;;;3.40;80.08;101792.41;5037589;57;1136819;-72
2023/04/04 10:12:13;;;;;;;13.23;4.40;;;;;;;3.45;79.54;101797.06;5113965;55;1136720;-74
2023/04/04 10:17:19;;;;;;;6.93;2.40;;;;;;;3.50;80.02;101799.11;5136839;55;1136854;-72
2023/04/04 10:22:25;;;;;;;7.90;2.73;;;;;;;3.49;79.78;101801.32;5121873;56;1134451;-72
2023/04/04 10:27:31;;;;;;;11.50;2.63;;;;;;;3.46;79.37;101796.17;5068150;56;1134662;-72
2023/04/04 10:33:07;;;;;;;6.97;3.53;;;;;;;3.46;80.09;101789.63;5099567;56;1136626;-72
2023/04/04 10:38:14;;;;;;;7.10;2.73;;;;;;;3.46;80.09;101789.63;5099782;55;1134700;-71
2023/04/04 10:43:25;;;;;;;8.87;3.80;;;;;;;3.34;78.79;101780.83;5120210;56;1134756;-75
2023/04/04 10:48:31;;;;;;;16.17;3.13;;;;;;;3.39;80.13;101775.44;5104310;55;1134562;-74
2023/04/04 10:53:39;;;;;;;6.80;3.17;;;;;;;3.54;80.68;101777.62;5100467;55;1136728;-73
2023/04/04 10:58:45;;;;;;;6.75;2.30;;;;;;;3.76;80.10;101760.42;5100620;56;1134698;-74
2023/04/04 11:04:20;;;;;;;7.00;2.13;;;;;;;3.99;81.91;101750.55;5120578;56;1134449;-71
2023/04/04 11:09:49;;;;;;;9.13;2.53;;;;;;;4.14;80.21;101744.84;5096936;56;1134510;-73
2023/04/04 11:15:11;;;;;;;11.67;3.73;;;;;;;4.18;76.40;101748.23;5180495;55;1134476;-72
2023/04/04 11:20:23;;;;;;;5.17;1.93;;;;;;;4.05;76.29;101745.14;5046300;56;1136784;-72
2023/04/04 11:25:35;;;;;;;13.85;5.25;;;;;;;3.95;76.29;101742.42;4945725;57;1134765;-73
2023/04/04 11:30:47;;;;;;;7.05;2.65;;;;;;;3.87;76.11;101740.47;4884612;57;1136895;-74
2023/04/04 11:35:52;;;;;;;14.83;5.53;;;;;;;3.85;76.30;101727.42;4881880;58;1134689;-74
2023/04/04 11:40:59;;;;;;;11.30;3.83;;;;;;;3.88;77.77;101721.25;4897431;57;1136615;-74
2023/04/04 11:46:09;;;;;;;10.03;3.13;;;;;;;4.01;78.67;101711.25;4999978;57;1136641;-75
2023/04/04 11:51:15;;;;;;;3.73;2.20;;;;;;;4.17;79.37;101712.02;4926616;56;1136920;-75
2023/04/04 11:56:21;;;;;;;3.73;1.80;;;;;;;4.50;78.42;101701.35;4950522;56;1134751;-74
2023/04/04 12:01:26;;;;;;;9.70;1.57;;;;;;;4.95;76.54;101694.98;4931192;57;1134830;-72
2023/04/04 12:06:34;;;;;;;4.00;2.20;;;;;;;5.10;70.90;101696.20;4926158;57;1134652;-71
2023/04/04 12:11:39;;;;;;;5.40;2.37;;;;;;;4.86;71.74;101687.00;4954403;57;1137059;-71
2023/04/04 12:16:48;;;;;;;14.33;3.17;;;;;;;4.84;72.37;101690.13;5031554;57;1134533;-73
2023/04/04 12:21:56;;;;;;;8.98;3.02;;;;;;;4.80;71.39;101687.20;5094989;56;1154289;-72
2023/04/04 12:27:02;;;;;;;8.17;2.77;;;;;;;4.94;69.03;101678.84;4999962;56;1163810;-73
2023/04/04 12:32:09;;;;;;;3.60;1.60;;;;;;;5.39;74.21;101668.89;4890307;58;1163014;-75
2023/04/04 12:37:17;;;;;;;7.70;3.00;;;;;;;5.79;72.31;101650.70;4810304;59;1175283;-72
2023/04/04 12:42:24;;;;;;;1.90;1.40;;;;;;;5.92;63.06;101654.58;4963965;57;1134623;-73
2023/04/04 12:47:31;;;;;;;4.27;1.73;;;;;;;5.57;64.95;101648.05;4915834;58;1134722;-75
2023/04/04 12:52:40;;;;;;;9.30;3.70;;;;;;;5.28;64.74;101647.01;4936461;58;1134616;-72
2023/04/04 12:57:46;;;;;;;4.37;2.00;;;;;;;5.18;67.68;101638.64;5011885;57;1134564;-72
2023/04/04 13:02:52;;;;;;;14.80;1.50;;;;;;;5.22;65.72;101627.55;5031230;57;1134561;-72
2023/04/04 13:08:08;;;;;;;3.35;1.10;;;;;;;5.21;64.15;101617.97;5011080;57;1136740;-74
2023/04/04 13:13:19;;;;;;;2.43;1.40;;;;;;;5.20;62.96;101611.88;5068209;56;1134632;-74
2023/04/04 13:18:28;;;;;;;5.93;1.73;;;;;;;5.30;65.22;101604.07;5094492;56;1134774;-76
2023/04/04 13:23:38;;;;;;;6.97;2.50;;;;;;;5.75;64.47;101596.61;5062131;56;1134675;-75
2023/04/04 13:28:42;;;;;;;4.70;2.22;;;;;;;5.93;63.16;101587.17;5076943;56;1134664;-75
2023/04/04 13:33:48;;;;;;;3.52;2.33;;;;;;;5.84;58.10;101580.94;4937749;57;1134582;-75
2023/04/04 13:38:53;;;;;;;7.73;3.20;;;;;;;5.93;63.34;101586.72;5190911;55;1134603;-77
2023/04/04 13:43:59;;;;;;;9.90;6.70;;;;;;;6.07;59.87;101575.63;5076004;55;1174904;-75
2023/04/04 13:49:05;;;;;;;3.60;2.20;;;;;;;6.14;61.97;101567.88;5045263;55;1239348;-74
2023/04/04 13:54:11;;;;;;;6.80;2.83;;;;;;;6.05;56.42;101568.27;5063766;56;1234558;-76
2023/04/04 13:59:16;;;;;;;7.60;1.87;;;;;;;5.97;59.63;101566.41;5069799;57;1241003;-75
2023/04/04 14:04:22;;;;;;;60.97;33.03;;;;;;;6.14;57.13;101565.70;5071593;55;1173182;-74
2023/04/04 14:09:28;;;;;;;30.67;17.93;;;;;;;6.13;54.87;101563.53;5094958;55;1138868;-76
2023/04/04 14:14:34;;;;;;;11.53;4.27;;;;;;;6.28;60.37;101548.43;5074259;56;1193702;-75
2023/04/04 14:19:40;;;;;;;9.33;3.47;;;;;;;6.49;61.62;101542.70;5094690;54;1249283;-75
2023/04/04 14:24:45;;;;;;;7.83;3.33;;;;;;;6.51;59.74;101544.81;5100324;56;1260337;-76
2023/04/04 14:29:51;;;;;;;8.70;3.70;;;;;;;6.42;58.69;101536.46;5121977;56;1134589;-74
2023/04/04 14:34:57;;;;;;;5.93;3.77;;;;;;;6.48;61.91;101530.48;5138694;55;1134482;-75
2023/04/04 14:40:02;;;;;;;10.20;3.10;;;;;;;6.79;60.71;101524.70;5044906;56;1134578;-76
2023/04/04 14:45:11;;;;;;;6.13;2.33;;;;;;;6.92;60.47;101518.41;5077608;55;1136900;-76
2023/04/04 14:50:16;;;;;;;8.57;3.00;;;;;;;6.67;59.08;101523.48;5020722;57;1134834;-74
2023/04/04 14:55:22;;;;;;;14.00;4.53;;;;;;;6.67;59.08;101523.48;5024910;56;1134729;-74
2023/04/04 15:00:28;;;;;;;15.63;4.60;;;;;;;6.59;60.51;101528.22;5158237;55;1136584;-75
2023/04/04 15:05:33;;;;;;;19.10;7.57;;;;;;;6.50;60.47;101517.28;5101318;56;1136755;-76
2023/04/04 15:10:39;;;;;;;15.10;7.50;;;;;;;6.47;58.30;101516.09;5133494;55;1136709;-75
2023/04/04 15:15:45;;;;;;;17.80;8.35;;;;;;;6.34;58.73;101510.54;5133452;54;1142320;-73
2023/04/04 15:20:51;;;;;;;14.80;5.50;;;;;;;6.24;59.18;101506.16;5189245;56;1136670;-76
2023/04/04 15:25:56;;;;;;;8.67;3.03;;;;;;;6.19;58.72;101512.06;5116460;55;1136646;-74
2023/04/04 15:31:02;;;;;;;17.00;5.93;;;;;;;6.12;58.83;101505.81;5101827;56;1134454;-74
2023/04/04 15:36:08;;;;;;;29.17;7.87;;;;;;;6.07;61.13;101504.73;5149671;55;1136621;-74
2023/04/04 15:41:13;;;;;;;15.73;6.03;;;;;;;6.03;59.97;101499.66;5129625;55;1145904;-76
2023/04/04 15:46:19;;;;;;;21.00;7.47;;;;;;;5.98;61.50;101494.14;5136186;55;1136829;-75
2023/04/04 15:51:26;;;;;;;15.40;5.30;;;;;;;5.98;62.39;101499.39;5151802;55;1136749;-75
2023/04/04 15:56:31;;;;;;;5.35;2.17;;;;;;;5.97;62.58;101491.58;5129787;55;1136960;-76
2023/04/04 16:01:39;;;;;;;11.33;5.92;;;;;;;6.00;62.27;101489.68;5185124;55;1134629;-76
2023/04/04 16:06:45;;;;;;;16.55;6.00;;;;;;;6.04;62.86;101484.30;5186057;55;1136824;-76
2023/04/04 16:11:50;;;;;;;15.13;5.70;;;;;;;5.99;61.95;101483.18;5161161;55;1136814;-75
2023/04/04 16:16:56;;;;;;;8.68;3.05;;;;;;;5.98;58.27;101477.07;5088449;56;1253996;-74
2023/04/04 16:22:04;;;;;;;13.20;6.30;;;;;;;5.98;58.27;101477.07;5050158;56;1134667;-74
2023/04/04 16:27:09;;;;;;;18.43;5.93;;;;;;;5.94;59.51;101478.61;5064625;56;1136707;-74
2023/04/04 16:32:15;;;;;;;24.73;11.43;;;;;;;5.89;60.43;101476.63;5022309;56;1136755;-73
2023/04/04 16:37:22;;;;;;;11.17;5.07;;;;;;;5.85;60.62;101469.30;5073536;56;1138804;-73
2023/04/04 16:42:28;;;;;;;29.63;12.10;;;;;;;5.82;61.04;101475.14;5054814;56;1136754;-76
2023/04/04 16:47:34;;;;;;;12.03;6.60;;;;;;;5.83;61.99;101484.26;5067294;56;1138763;-73
2023/04/04 16:52:40;;;;;;;13.67;6.57;;;;;;;5.82;62.46;101480.38;5084208;56;1136708;-71
2023/04/04 16:57:45;;;;;;;11.13;6.27;;;;;;;5.77;62.79;101481.06;5075380;56;1136835;-73
2023/04/04 17:02:51;;;;;;;14.07;6.47;;;;;;;5.73;63.66;101478.16;5042378;56;1136879;-68
2023/04/04 17:07:56;;;;;;;19.60;7.10;;;;;;;5.69;63.95;101482.68;5015619;56;1136880;-75
2023/04/04 17:13:02;;;;;;;104.17;40.40;;;;;;;5.68;64.52;101480.11;5065521;55;1136667;-70
2023/04/04 17:18:08;;;;;;;205.37;83.60;;;;;;;5.61;64.44;101476.45;5145489;55;1140825;-67
2023/04/04 17:23:13;;;;;;;147.27;61.43;;;;;;;5.54;64.62;101476.30;5060561;56;1141008;-69
2023/04/04 17:28:20;;;;;;;96.13;39.00;;;;;;;5.49;65.72;101478.73;5031701;56;1140967;-72
2023/04/04 17:33:28;;;;;;;59.90;25.03;;;;;;;5.49;65.72;101478.73;5114398;55;1138885;-69
2023/04/04 17:38:35;;;;;;;60.27;25.93;;;;;;;5.43;65.88;101480.29;5057427;56;1139113;-71
2023/04/04 17:43:40;;;;;;;101.57;39.93;;;;;;;5.37;66.35;101485.77;5035387;56;1138823;-67
2023/04/04 17:48:47;;;;;;;116.94;45.84;;;;;;;5.28;67.04;101490.49;5130566;55;1141309;-68
2023/04/04 17:53:53;;;;;;;119.00;46.90;;;;;;;5.24;67.91;101484.97;5094994;55;1140854;-69
2023/04/04 17:58:58;;;;;;;78.23;32.60;;;;;;;5.21;67.75;101490.33;5165984;55;1140834;-75
2023/04/04 18:04:04;;;;;;;46.43;20.20;;;;;;;5.18;68.00;101489.62;5186777;55;1138740;-72
2023/04/04 18:09:11;;;;;;;80.72;31.02;;;;;;;5.14;68.14;101483.63;5061371;55;1138751;-73
2023/04/04 18:14:17;;;;;;;231.17;76.40;;;;;;;5.08;68.11;101494.35;5026869;56;1139069;-74
2023/04/04 18:19:23;;;;;;;208.07;73.83;;;;;;;4.97;68.46;101498.31;5024205;56;1140855;-73
2023/04/04 18:24:28;;;;;;;218.25;84.42;;;;;;;4.87;68.97;101499.98;5057507;56;1140925;-69
2023/04/04 18:29:34;;;;;;;185.80;71.20;;;;;;;4.76;68.99;101495.59;5047068;56;1140899;-71
2023/04/04 18:34:40;;;;;;;193.93;71.47;;;;;;;4.68;69.29;101495.50;5054300;55;1140936;-72
2023/04/04 18:39:45;;;;;;;139.47;50.15;;;;;;;4.64;69.57;101493.44;5043550;56;1140932;-74
2023/04/04 18:44:53;;;;;;;100.03;36.10;;;;;;;4.66;70.07;101501.24;5070632;55;1140840;-67
2023/04/04 18:49:58;;;;;;;81.47;30.40;;;;;;;4.64;70.62;101503.92;5156818;55;1140949;-71
2023/04/04 18:55:06;;;;;;;176.47;77.63;;;;;;;4.64;70.74;101501.75;5103077;55;1138870;-73
2023/04/04 19:00:13;;;;;;;152.10;57.67;;;;;;;4.62;71.20;101499.64;5066844;56;1140841;-72
2023/04/04 19:05:24;;;;;;;163.83;60.53;;;;;;;4.51;71.37;101502.22;5075868;56;1140934;-72
2023/04/04 19:10:30;;;;;;;150.27;62.83;;;;;;;4.47;71.97;101504.54;5103067;56;1140816;-72
2023/04/04 19:15:36;;;;;;;156.07;64.40;;;;;;;4.44;72.43;101506.41;5073159;55;1140974;-67
2023/04/04 19:20:42;;;;;;;168.10;67.20;;;;;;;4.45;73.13;101504.19;5104186;55;1140782;-72
2023/04/04 19:25:49;;;;;;;307.63;108.20;;;;;;;4.47;73.50;101512.39;5120551;55;1141053;-70
2023/04/04 19:30:55;;;;;;;182.37;71.47;;;;;;;4.36;73.85;101518.94;5152501;55;1143089;-69
2023/04/04 19:36:11;;;;;;;174.23;68.83;;;;;;;4.23;73.83;101512.84;5110362;55;1140932;-72
2023/04/04 19:41:31;;;;;;;158.23;58.73;;;;;;;4.10;74.21;101512.88;5119172;55;1140799;-69
2023/04/04 19:46:37;;;;;;;104.53;43.83;;;;;;;4.02;74.31;101510.11;5167301;55;1140881;-70
2023/04/04 19:51:55;;;;;;;103.97;45.17;;;;;;;3.95;74.97;101517.78;5099122;56;1140905;-66
2023/04/04 19:57:10;;;;;;;98.70;42.73;;;;;;;3.88;75.35;101511.89;5100210;56;1140817;-73
2023/04/04 20:02:35;;;;;;;104.27;43.57;;;;;;;3.90;76.44;101506.16;5070111;56;1138668;-67
2023/04/04 20:07:41;;;;;;;96.87;40.15;;;;;;;4.03;76.72;101518.36;5087317;56;1141014;-72
2023/04/04 20:12:46;;;;;;;100.38;39.70;;;;;;;4.07;77.17;101523.45;5078781;56;1139261;-69
2023/04/04 20:17:52;;;;;;;108.50;45.27;;;;;;;4.08;77.36;101521.69;5054710;56;1140974;-72
2023/04/04 20:22:58;;;;;;;116.80;51.07;;;;;;;4.10;77.64;101522.04;5102697;55;1233393;-70
2023/04/04 20:28:05;;;;;;;131.03;58.13;;;;;;;4.05;77.34;101511.31;5057968;55;1140889;-69
2023/04/04 20:33:33;;;;;;;181.77;72.60;;;;;;;3.93;76.74;101509.98;5060903;56;1141070;-72
2023/04/04 20:38:41;;;;;;;208.57;86.07;;;;;;;3.82;77.50;101509.47;5054230;56;1141089;-69
2023/04/04 20:43:55;;;;;;;174.30;71.07;;;;;;;3.77;78.00;101512.27;5041346;56;1141033;-70
2023/04/04 20:49:01;;;;;;;203.60;92.20;;;;;;;3.75;78.29;101517.14;5119525;55;1140790;-69
2023/04/04 20:54:06;;;;;;;193.02;83.37;;;;;;;3.64;78.05;101511.42;5204799;55;1140856;-69
2023/04/04 20:59:35;;;;;;;158.18;65.40;;;;;;;3.52;78.32;101515.27;5185878;55;1140961;-68
2023/04/04 21:04:44;;;;;;;191.07;77.10;;;;;;;3.50;79.27;101514.48;5184023;55;1140786;-67
2023/04/04 21:09:49;;;;;;;185.45;73.10;;;;;;;3.36;79.39;101511.47;5153044;55;1141035;-72
2023/04/04 21:14:55;;;;;;;187.30;74.90;;;;;;;3.12;79.96;101510.46;5179654;56;1140972;-71
2023/04/04 21:20:01;;;;;;;135.52;56.73;;;;;;;3.04;80.98;101511.16;5241395;55;1140908;-70
2023/04/04 21:25:11;;;;;;;124.97;50.07;;;;;;;2.84;80.85;101510.45;5188615;55;1140816;-70
2023/04/04 21:30:27;;;;;;;512.75;143.78;;;;;;;2.75;81.54;101506.33;5196326;55;1140861;-70
2023/04/04 21:35:50;;;;;;;438.37;128.90;;;;;;;2.84;82.32;101498.69;5176708;55;1142952;-72
2023/04/04 21:41:00;;;;;;;357.20;105.10;;;;;;;2.95;82.33;101504.44;5185252;55;1142958;-73
2023/04/04 21:46:06;;;;;;;480.73;138.27;;;;;;;3.02;82.80;101498.14;5185290;55;1143040;-71
2023/04/04 21:51:11;;;;;;;424.77;129.18;;;;;;;3.04;82.94;101499.41;5205068;55;1142883;-69
2023/04/04 21:56:18;;;;;;;275.20;102.75;;;;;;;3.11;83.31;101498.30;5224225;55;1142913;-72
2023/04/04 22:01:25;;;;;;;198.23;75.97;;;;;;;3.10;83.47;101493.52;5036454;55;1142949;-70
2023/04/04 22:06:31;;;;;;;255.47;90.93;;;;;;;2.95;83.34;101487.91;5112311;56;1140805;-71
2023/04/04 22:11:41;;;;;;;210.13;87.03;;;;;;;2.90;83.84;101486.77;5045803;56;1140935;-72
2023/04/04 22:16:47;;;;;;;225.10;89.10;;;;;;;2.83;83.91;101479.55;5069851;56;1141127;-71
2023/04/04 22:21:52;;;;;;;191.75;75.92;;;;;;;2.83;84.21;101473.47;5008468;57;1141049;-70
2023/04/04 22:26:58;;;;;;;173.30;70.33;;;;;;;2.86;84.46;101462.93;5028250;57;1140750;-68
2023/04/04 22:32:04;;;;;;;380.47;120.03;;;;;;;2.83;84.37;101471.71;5012398;56;1140811;-71
2023/04/04 22:37:10;;;;;;;576.10;180.47;;;;;;;2.83;85.07;101463.87;5026861;57;1143059;-70
2023/04/04 22:42:15;;;;;;;157.80;61.00;;;;;;;2.87;85.92;101469.02;5059031;57;1143098;-74
2023/04/04 22:47:21;;;;;;;128.83;53.60;;;;;;;2.88;86.15;101462.44;5064005;56;1141047;-70
2023/04/04 22:52:29;;;;;;;136.43;55.92;;;;;;;2.79;86.01;101464.86;5086971;56;1140835;-71
2023/04/04 22:57:34;;;;;;;161.23;67.43;;;;;;;2.68;86.36;101458.26;5111831;56;1140975;-74
2023/04/04 23:02:40;;;;;;;140.00;57.83;;;;;;;2.52;86.42;101450.47;5091880;56;1140847;-70
2023/04/04 23:07:46;;;;;;;135.30;54.83;;;;;;;2.47;86.70;101456.67;4972866;56;1141104;-69
2023/04/04 23:12:52;;;;;;;113.27;49.07;;;;;;;2.51;87.00;101446.15;5046977;56;1140935;-71